Time;durP1;ratioP1;P1;durP2;ratioP2;P2;SDS_P1;SDS_P2;PMS_P1;PMS_P2;Temp;Humidity;BMP_temperature;BMP_pressure;BME280_temperature;BME280_humidity;BME280_pressure;Samples;Min_cycle;Max_cycle;Signal;HPM_P1;HPM_P2
2024/01/26 00:00:24;;;;;;;70.20;16.17;;;;;;;;;;5104958;28;20093;-54
2024/01/26 00:02:51;;;;;;;55.03;15.10;;;;;;;;;;5103860;28;20238;-56
2024/01/26 00:05:17;;;;;;;46.53;13.63;;;;;;;;;;5104865;28;20219;-57
2024/01/26 00:07:44;;;;;;;44.47;12.25;;;;;;;;;;5105210;28;20296;-60
2024/01/26 00:10:11;;;;;;;40.65;12.02;;;;;;;;;;5105126;28;20031;-56
2024/01/26 00:12:37;;;;;;;34.67;10.57;;;;;;;;;;5104724;28;20024;-55
2024/01/26 00:15:04;;;;;;;32.78;9.00;;;;;;;;;;5104755;28;20110;-55
2024/01/26 00:17:30;;;;;;;27.70;9.65;;;;;;;;;;5104766;28;20031;-57
2024/01/26 00:19:57;;;;;;;24.55;8.40;;;;;;;;;;5104552;28;20019;-57
2024/01/26 00:22:23;;;;;;;31.13;8.43;;;;;;;;;;5105062;28;20210;-54
2024/01/26 00:24:50;;;;;;;17.40;7.68;;;;;;;;;;5104692;28;20066;-56
2024/01/26 00:27:17;;;;;;;29.27;7.97;;;;;;;;;;5104603;28;20016;-55
2024/01/26 00:29:43;;;;;;;33.45;9.18;;;;;;;;;;5104883;28;20076;-60
2024/01/26 00:32:10;;;;;;;17.45;7.25;;;;;;;;;;5104626;28;20129;-55
2024/01/26 00:34:37;;;;;;;16.40;7.85;;;;;;;;;;5103777;28;20020;-54
2024/01/26 00:37:03;;;;;;;22.00;7.72;;;;;;;;;;5104728;28;20027;-54
2024/01/26 00:39:30;;;;;;;16.60;7.07;;;;;;;;;;5104710;28;20024;-54
2024/01/26 00:41:57;;;;;;;16.10;6.88;;;;;;;;;;5104645;28;20372;-57
2024/01/26 00:44:24;;;;;;;15.73;6.82;;;;;;;;;;5104409;28;20347;-55
2024/01/26 00:46:50;;;;;;;15.73;6.82;;;;;;;;;;5104428;28;20367;-55
2024/01/26 00:49:17;;;;;;;13.73;6.90;;;;;;;;;;5104403;28;20304;-55
2024/01/26 00:51:43;;;;;;;19.35;7.18;;;;;;;;;;5104127;28;20031;-52
2024/01/26 00:54:10;;;;;;;18.13;7.05;;;;;;;;;;5104254;28;20012;-55
2024/01/26 00:56:37;;;;;;;19.83;7.32;;;;;;;;;;5104215;28;20058;-56
2024/01/26 00:59:04;;;;;;;12.52;7.05;;;;;;;;;;5104179;28;20067;-53
2024/01/26 01:01:30;;;;;;;11.93;6.80;;;;;;;;;;5104163;28;20020;-55
2024/01/26 01:03:57;;;;;;;12.25;6.57;;;;;;;;;;5104641;28;20046;-55
2024/01/26 01:06:23;;;;;;;18.38;6.63;;;;;;;;;;5104017;28;20071;-57
2024/01/26 01:08:50;;;;;;;12.38;6.72;;;;;;;;;;5104656;28;20020;-56
2024/01/26 01:11:16;;;;;;;88.32;13.68;;;;;;;;;;5104056;28;20027;-53
2024/01/26 01:13:43;;;;;;;39.85;9.05;;;;;;;;;;5104396;28;20308;-56
2024/01/26 01:16:12;;;;;;;32.00;8.18;;;;;;;;;;5104141;28;20012;-54
2024/01/26 01:18:39;;;;;;;30.98;6.90;;;;;;;;;;5104383;28;20024;-56
2024/01/26 01:21:05;;;;;;;21.92;7.35;;;;;;;;;;5103858;28;20016;-54
2024/01/26 01:23:32;;;;;;;19.55;6.90;;;;;;;;;;5104376;28;20024;-53
2024/01/26 01:25:59;;;;;;;26.80;7.13;;;;;;;;;;5103974;28;20075;-54
2024/01/26 01:28:25;;;;;;;23.17;7.38;;;;;;;;;;5104108;28;20035;-53
2024/01/26 01:30:52;;;;;;;17.55;7.05;;;;;;;;;;5104041;28;20015;-53
2024/01/26 01:33:18;;;;;;;22.73;7.38;;;;;;;;;;5104245;28;20066;-56
2024/01/26 01:35:45;;;;;;;52.00;8.77;;;;;;;;;;5103596;28;20291;-55
2024/01/26 01:38:12;;;;;;;46.60;8.90;;;;;;;;;;5104188;28;20287;-55
2024/01/26 01:40:39;;;;;;;42.30;8.35;;;;;;;;;;5103985;28;20316;-53
2024/01/26 01:43:06;;;;;;;22.80;7.53;;;;;;;;;;5103663;28;20071;-55
2024/01/26 01:45:32;;;;;;;23.65;7.53;;;;;;;;;;5107065;28;20073;-53
2024/01/26 01:47:59;;;;;;;31.90;7.43;;;;;;;;;;5107937;28;20044;-55
2024/01/26 01:50:25;;;;;;;24.63;7.10;;;;;;;;;;5107558;28;20026;-55
2024/01/26 01:52:53;;;;;;;19.23;7.22;;;;;;;;;;5107959;28;20046;-55
2024/01/26 01:55:20;;;;;;;19.70;6.75;;;;;;;;;;5107807;28;20069;-55
2024/01/26 01:57:47;;;;;;;33.45;8.65;;;;;;;;;;5107722;28;20039;-55
2024/01/26 02:00:17;;;;;;;20.40;6.72;;;;;;;;;;5107692;28;20020;-54
2024/01/26 02:02:45;;;;;;;224.07;22.13;;;;;;;;;;5105579;28;20032;-52
2024/01/26 02:05:12;;;;;;;43.40;9.13;;;;;;;;;;5101516;28;20078;-56
2024/01/26 02:07:39;;;;;;;24.63;7.13;;;;;;;;;;5104751;28;20012;-52
2024/01/26 02:10:15;;;;;;;20.20;6.82;;;;;;;;;;5106700;28;20016;-53
2024/01/26 02:12:42;;;;;;;38.75;7.80;;;;;;;;;;5105181;28;20296;-59
2024/01/26 02:15:09;;;;;;;39.75;7.95;;;;;;;;;;5106291;28;20316;-58
2024/01/26 02:17:36;;;;;;;27.73;8.05;;;;;;;;;;5106575;28;20035;-60
2024/01/26 02:20:04;;;;;;;125.68;12.32;;;;;;;;;;5105296;28;20250;-59
2024/01/26 02:22:31;;;;;;;72.55;10.85;;;;;;;;;;5107197;28;20024;-63
2024/01/26 02:24:57;;;;;;;81.65;12.20;;;;;;;;;;5105569;28;20087;-62
2024/01/26 02:27:24;;;;;;;45.47;9.20;;;;;;;;;;5105463;28;20024;-63
2024/01/26 02:29:50;;;;;;;18.35;7.30;;;;;;;;;;5102799;28;20020;-63
2024/01/26 02:32:17;;;;;;;19.73;7.30;;;;;;;;;;5100081;28;20046;-62
2024/01/26 02:34:44;;;;;;;14.88;7.20;;;;;;;;;;5102847;28;20064;-61
2024/01/26 02:37:10;;;;;;;18.58;6.93;;;;;;;;;;5106199;28;20028;-61
2024/01/26 02:39:38;;;;;;;16.55;7.38;;;;;;;;;;5103463;28;20024;-61
2024/01/26 02:42:05;;;;;;;17.35;7.28;;;;;;;;;;5103047;28;20028;-67
2024/01/26 02:44:32;;;;;;;13.23;6.80;;;;;;;;;;5103811;28;20047;-62
2024/01/26 02:46:59;;;;;;;19.83;7.32;;;;;;;;;;5105933;28;20039;-67
2024/01/26 02:49:26;;;;;;;10.70;6.68;;;;;;;;;;5105665;28;20009;-65
2024/01/26 02:51:53;;;;;;;10.85;7.40;;;;;;;;;;5105703;28;20056;-64
2024/01/26 02:54:19;;;;;;;10.00;6.57;;;;;;;;;;5105774;28;20078;-67
2024/01/26 02:56:46;;;;;;;13.13;7.63;;;;;;;;;;5104699;28;20012;-63
2024/01/26 02:59:12;;;;;;;10.13;7.07;;;;;;;;;;5105571;28;20316;-62
2024/01/26 03:01:39;;;;;;;11.18;7.03;;;;;;;;;;5105435;28;20080;-64
2024/01/26 03:04:06;;;;;;;8.75;7.20;;;;;;;;;;5105353;28;20024;-67
2024/01/26 03:06:32;;;;;;;10.43;7.35;;;;;;;;;;5105585;28;20030;-65
2024/01/26 03:08:59;;;;;;;11.20;7.53;;;;;;;;;;5106022;28;20080;-59
2024/01/26 03:11:35;;;;;;;10.13;6.93;;;;;;;;;;5105281;28;20019;-63
2024/01/26 03:14:01;;;;;;;8.98;7.35;;;;;;;;;;5103792;28;20051;-63
2024/01/26 03:16:28;;;;;;;9.75;7.22;;;;;;;;;;5105335;28;20012;-62
2024/01/26 03:18:54;;;;;;;12.75;7.68;;;;;;;;;;5105623;28;20399;-62
2024/01/26 03:21:21;;;;;;;10.70;7.38;;;;;;;;;;5103997;28;20304;-61
2024/01/26 03:23:47;;;;;;;13.95;7.35;;;;;;;;;;5105472;28;20020;-65
2024/01/26 03:26:14;;;;;;;9.63;7.53;;;;;;;;;;5105123;28;20016;-65
2024/01/26 03:28:41;;;;;;;12.75;7.30;;;;;;;;;;5105598;28;20024;-64
2024/01/26 03:31:07;;;;;;;13.05;8.05;;;;;;;;;;5105252;28;20018;-62
2024/01/26 03:33:34;;;;;;;13.27;8.82;;;;;;;;;;5105285;28;20024;-58
2024/01/26 03:36:01;;;;;;;11.98;8.65;;;;;;;;;;5105017;28;20223;-62
2024/01/26 03:38:27;;;;;;;14.50;8.10;;;;;;;;;;5105387;28;20265;-62
2024/01/26 03:40:54;;;;;;;10.40;8.13;;;;;;;;;;5104818;28;20020;-62
2024/01/26 03:43:20;;;;;;;14.77;8.80;;;;;;;;;;5104943;28;20293;-66
2024/01/26 03:45:47;;;;;;;13.15;8.48;;;;;;;;;;5104869;28;20015;-67
2024/01/26 03:48:14;;;;;;;12.40;8.50;;;;;;;;;;5105083;28;20066;-59
2024/01/26 03:50:40;;;;;;;9.80;8.10;;;;;;;;;;5104770;28;20084;-63
2024/01/26 03:53:07;;;;;;;11.32;8.75;;;;;;;;;;5105210;28;20024;-60
2024/01/26 03:55:33;;;;;;;11.10;8.43;;;;;;;;;;5104569;28;20057;-66
2024/01/26 03:58:00;;;;;;;12.85;8.82;;;;;;;;;;5104866;28;20031;-64
2024/01/26 04:00:26;;;;;;;11.55;8.73;;;;;;;;;;5104765;28;20324;-68
2024/01/26 04:02:53;;;;;;;12.10;8.82;;;;;;;;;;5102276;28;20097;-65
2024/01/26 04:05:20;;;;;;;12.45;8.40;;;;;;;;;;5100068;28;20022;-68
2024/01/26 04:07:46;;;;;;;13.75;8.85;;;;;;;;;;5104693;28;20028;-64
2024/01/26 04:10:13;;;;;;;11.30;8.57;;;;;;;;;;5104472;28;20031;-63
2024/01/26 04:12:40;;;;;;;10.65;8.23;;;;;;;;;;5104164;28;20030;-65
2024/01/26 04:15:06;;;;;;;13.50;8.52;;;;;;;;;;5104310;28;20024;-60
2024/01/26 04:17:33;;;;;;;11.07;7.80;;;;;;;;;;5104240;28;20028;-61
2024/01/26 04:19:59;;;;;;;10.35;8.35;;;;;;;;;;5103925;28;20039;-61
2024/01/26 04:22:26;;;;;;;11.05;8.45;;;;;;;;;;5104162;28;20051;-61
2024/01/26 04:24:52;;;;;;;11.45;8.75;;;;;;;;;;5103818;28;20019;-63
2024/01/26 04:27:19;;;;;;;9.82;8.32;;;;;;;;;;5104190;28;20051;-62
2024/01/26 04:29:46;;;;;;;10.70;8.50;;;;;;;;;;5099442;28;20181;-60
2024/01/26 04:32:12;;;;;;;10.57;8.68;;;;;;;;;;5094676;28;20193;-60
2024/01/26 04:34:40;;;;;;;11.50;8.90;;;;;;;;;;5101519;28;20020;-60
2024/01/26 04:37:10;;;;;;;10.48;8.07;;;;;;;;;;5104198;28;20028;-60
2024/01/26 04:39:36;;;;;;;11.05;9.05;;;;;;;;;;5101445;28;20219;-60
2024/01/26 04:42:03;;;;;;;17.48;9.25;;;;;;;;;;5103977;28;20024;-61
2024/01/26 04:44:30;;;;;;;15.50;8.85;;;;;;;;;;5103739;28;20040;-60
2024/01/26 04:46:57;;;;;;;12.82;8.82;;;;;;;;;;5099160;28;20031;-60
2024/01/26 04:49:26;;;;;;;10.43;8.95;;;;;;;;;;5101159;28;20040;-59
2024/01/26 04:51:52;;;;;;;14.65;8.68;;;;;;;;;;5103846;28;20023;-59
2024/01/26 04:54:19;;;;;;;12.75;8.98;;;;;;;;;;5103831;28;20011;-60
2024/01/26 04:56:46;;;;;;;11.80;9.43;;;;;;;;;;5103641;28;20016;-59
2024/01/26 04:59:12;;;;;;;20.42;8.98;;;;;;;;;;5103921;28;20069;-59
2024/01/26 05:01:39;;;;;;;20.40;9.55;;;;;;;;;;5103696;28;20020;-59
2024/01/26 05:04:06;;;;;;;20.15;9.07;;;;;;;;;;5099571;28;20091;-59
2024/01/26 05:06:32;;;;;;;36.08;11.70;;;;;;;;;;5100299;28;20016;-60
2024/01/26 05:08:59;;;;;;;20.55;9.82;;;;;;;;;;5099712;28;20099;-60
2024/01/26 05:11:26;;;;;;;17.75;9.20;;;;;;;;;;5100881;28;20380;-59
2024/01/26 05:13:52;;;;;;;21.90;9.50;;;;;;;;;;5103979;28;20074;-59
2024/01/26 05:16:19;;;;;;;11.70;8.70;;;;;;;;;;5103537;28;20019;-59
2024/01/26 05:18:45;;;;;;;15.73;8.73;;;;;;;;;;5103966;28;20315;-61
2024/01/26 05:21:12;;;;;;;14.75;8.57;;;;;;;;;;5107686;28;20097;-60
2024/01/26 05:23:38;;;;;;;15.30;8.93;;;;;;;;;;5108155;28;20023;-59
2024/01/26 05:26:06;;;;;;;14.35;8.77;;;;;;;;;;5107419;28;20189;-59
2024/01/26 05:28:33;;;;;;;21.02;9.38;;;;;;;;;;5107941;28;20224;-59
2024/01/26 05:30:59;;;;;;;13.70;8.35;;;;;;;;;;5107643;28;20016;-61
2024/01/26 05:33:26;;;;;;;15.55;9.10;;;;;;;;;;5106412;28;20327;-59
2024/01/26 05:35:53;;;;;;;16.52;8.27;;;;;;;;;;5107482;28;20034;-59
2024/01/26 05:38:19;;;;;;;15.40;8.25;;;;;;;;;;5107851;28;20061;-59
2024/01/26 05:40:46;;;;;;;12.38;8.55;;;;;;;;;;5106080;28;20027;-62
2024/01/26 05:43:13;;;;;;;10.57;8.20;;;;;;;;;;5087034;28;20049;-59
2024/01/26 05:45:40;;;;;;;15.75;8.15;;;;;;;;;;5095447;28;20033;-60
2024/01/26 05:48:06;;;;;;;17.45;8.40;;;;;;;;;;5105563;28;20020;-59
2024/01/26 05:50:33;;;;;;;11.38;7.65;;;;;;;;;;5104486;28;20335;-62
2024/01/26 05:53:00;;;;;;;14.73;8.13;;;;;;;;;;5107445;28;20091;-60
2024/01/26 05:55:26;;;;;;;11.38;7.63;;;;;;;;;;5107117;28;20062;-59
2024/01/26 05:57:53;;;;;;;10.82;7.35;;;;;;;;;;5107523;28;20031;-61
2024/01/26 06:00:19;;;;;;;13.50;8.25;;;;;;;;;;5107677;28;20028;-60
2024/01/26 06:02:46;;;;;;;11.15;7.40;;;;;;;;;;5107883;28;20043;-59
2024/01/26 06:05:13;;;;;;;13.75;7.95;;;;;;;;;;5106971;28;20028;-60
2024/01/26 06:07:39;;;;;;;10.52;7.53;;;;;;;;;;5107463;28;20353;-59
2024/01/26 06:10:07;;;;;;;10.45;7.00;;;;;;;;;;5107255;28;20219;-59
2024/01/26 06:12:33;;;;;;;10.40;7.50;;;;;;;;;;5107029;28;20083;-59
2024/01/26 06:15:00;;;;;;;8.77;7.65;;;;;;;;;;5106965;28;20057;-59
2024/01/26 06:17:26;;;;;;;10.35;7.15;;;;;;;;;;5107090;28;20204;-59
2024/01/26 06:19:53;;;;;;;9.13;7.45;;;;;;;;;;5106747;28;20080;-60
2024/01/26 06:22:20;;;;;;;8.23;7.18;;;;;;;;;;5106951;28;20023;-59
2024/01/26 06:24:46;;;;;;;10.38;7.05;;;;;;;;;;5107054;28;20262;-61
2024/01/26 06:27:13;;;;;;;9.38;7.30;;;;;;;;;;5106700;28;20121;-59
2024/01/26 06:29:39;;;;;;;10.73;7.15;;;;;;;;;;5106227;28;20089;-61
2024/01/26 06:32:06;;;;;;;8.10;7.13;;;;;;;;;;5105509;28;20012;-58
2024/01/26 06:34:33;;;;;;;8.82;6.78;;;;;;;;;;5106492;28;20031;-58
2024/01/26 06:37:00;;;;;;;11.15;7.50;;;;;;;;;;5106694;28;20095;-59
2024/01/26 06:39:26;;;;;;;13.27;7.20;;;;;;;;;;5107013;28;20032;-58
2024/01/26 06:41:53;;;;;;;10.77;7.20;;;;;;;;;;5106586;28;20027;-59
2024/01/26 06:44:20;;;;;;;9.75;6.82;;;;;;;;;;5106518;28;20095;-59
2024/01/26 06:46:46;;;;;;;11.23;7.30;;;;;;;;;;5106323;28;20019;-59
2024/01/26 06:49:13;;;;;;;11.18;6.97;;;;;;;;;;5106332;28;20020;-58
2024/01/26 06:51:39;;;;;;;12.75;7.22;;;;;;;;;;5106402;28;20027;-58
2024/01/26 06:54:06;;;;;;;10.32;6.75;;;;;;;;;;5106361;28;20079;-58
2024/01/26 06:56:32;;;;;;;9.63;6.93;;;;;;;;;;5106305;28;20327;-58
2024/01/26 06:58:59;;;;;;;9.85;6.80;;;;;;;;;;5106668;28;20028;-58
2024/01/26 07:01:26;;;;;;;8.23;6.78;;;;;;;;;;5106287;28;20024;-59
2024/01/26 07:03:52;;;;;;;9.48;7.32;;;;;;;;;;5106587;28;20040;-60
2024/01/26 07:06:19;;;;;;;9.52;6.82;;;;;;;;;;5105937;28;20030;-61
2024/01/26 07:08:46;;;;;;;12.90;7.13;;;;;;;;;;5106520;28;20028;-59
2024/01/26 07:11:14;;;;;;;9.18;6.53;;;;;;;;;;5106052;28;20024;-58
2024/01/26 07:13:40;;;;;;;9.65;6.97;;;;;;;;;;5105759;28;20149;-57
2024/01/26 07:16:07;;;;;;;7.45;6.55;;;;;;;;;;5103962;28;20079;-58
2024/01/26 07:18:33;;;;;;;8.63;6.63;;;;;;;;;;5097344;28;20025;-60
2024/01/26 07:21:05;;;;;;;9.25;6.97;;;;;;;;;;5085361;28;20021;-58
2024/01/26 07:23:32;;;;;;;8.48;6.07;;;;;;;;;;5085824;28;20035;-58
2024/01/26 07:25:59;;;;;;;7.47;6.40;;;;;;;;;;5085301;28;20035;-58
2024/01/26 07:28:25;;;;;;;8.52;7.10;;;;;;;;;;5085908;28;20020;-60
2024/01/26 07:30:52;;;;;;;8.27;6.97;;;;;;;;;;5085293;28;20301;-59
2024/01/26 07:33:19;;;;;;;8.45;6.68;;;;;;;;;;5085954;28;20052;-62
2024/01/26 07:35:46;;;;;;;7.75;6.35;;;;;;;;;;5085069;28;20092;-59
2024/01/26 07:38:12;;;;;;;8.43;6.55;;;;;;;;;;5085563;28;20238;-61
2024/01/26 07:40:39;;;;;;;8.35;6.50;;;;;;;;;;5085169;28;20084;-59
2024/01/26 07:43:06;;;;;;;9.20;6.63;;;;;;;;;;5084530;28;20048;-61
2024/01/26 07:45:33;;;;;;;6.85;6.15;;;;;;;;;;5084883;28;20035;-59
2024/01/26 07:48:00;;;;;;;8.48;6.20;;;;;;;;;;5085234;28;20139;-59
2024/01/26 07:50:26;;;;;;;9.20;6.63;;;;;;;;;;5084856;28;20336;-59
2024/01/26 07:52:53;;;;;;;9.48;7.28;;;;;;;;;;5085276;28;20025;-59
2024/01/26 07:55:19;;;;;;;9.38;6.85;;;;;;;;;;5084855;28;20079;-60
2024/01/26 07:57:46;;;;;;;8.98;6.90;;;;;;;;;;5084990;28;20043;-60
2024/01/26 08:00:13;;;;;;;9.30;7.05;;;;;;;;;;5084886;28;20217;-60
2024/01/26 08:02:40;;;;;;;8.32;6.78;;;;;;;;;;5085100;28;20305;-60
2024/01/26 08:05:06;;;;;;;9.10;6.47;;;;;;;;;;5084369;28;20065;-59
2024/01/26 08:07:33;;;;;;;8.63;6.60;;;;;;;;;;5084788;28;20022;-58
2024/01/26 08:10:00;;;;;;;7.80;6.47;;;;;;;;;;5084550;28;20024;-59
2024/01/26 08:12:26;;;;;;;10.23;6.57;;;;;;;;;;5084459;28;20048;-58
2024/01/26 08:14:53;;;;;;;8.35;6.45;;;;;;;;;;5084443;28;20211;-59
2024/01/26 08:17:20;;;;;;;8.18;6.57;;;;;;;;;;5084582;28;20204;-58
2024/01/26 08:19:46;;;;;;;7.05;6.30;;;;;;;;;;5084511;28;20024;-60
2024/01/26 08:22:13;;;;;;;8.98;6.60;;;;;;;;;;5084537;28;20087;-58
2024/01/26 08:24:39;;;;;;;7.30;6.47;;;;;;;;;;5084455;28;20194;-60
2024/01/26 08:27:06;;;;;;;7.28;6.18;;;;;;;;;;5084224;28;20193;-58
2024/01/26 08:29:32;;;;;;;7.47;5.70;;;;;;;;;;5084305;28;20021;-58
2024/01/26 08:31:59;;;;;;;7.15;6.00;;;;;;;;;;5084243;28;20081;-59
2024/01/26 08:34:26;;;;;;;7.75;6.15;;;;;;;;;;5084066;28;20066;-59
2024/01/26 08:36:52;;;;;;;7.28;6.10;;;;;;;;;;5084015;28;20016;-59
2024/01/26 08:39:19;;;;;;;6.53;5.78;;;;;;;;;;5084349;28;20074;-58
2024/01/26 08:41:46;;;;;;;6.85;5.85;;;;;;;;;;5083969;28;20251;-59
2024/01/26 08:44:13;;;;;;;6.88;5.93;;;;;;;;;;5083727;28;20048;-61
2024/01/26 08:46:39;;;;;;;8.10;5.85;;;;;;;;;;5083992;28;20016;-58
2024/01/26 08:49:06;;;;;;;8.00;5.82;;;;;;;;;;5084005;28;20027;-58
2024/01/26 08:51:33;;;;;;;9.68;6.32;;;;;;;;;;5084081;28;20023;-59
2024/01/26 08:54:00;;;;;;;8.05;6.43;;;;;;;;;;5083709;28;20080;-59
2024/01/26 08:56:26;;;;;;;8.00;5.40;;;;;;;;;;5084032;28;20021;-58
2024/01/26 08:58:54;;;;;;;7.03;5.65;;;;;;;;;;5083680;28;20025;-59
2024/01/26 09:01:21;;;;;;;7.88;5.88;;;;;;;;;;5084022;28;20058;-59
2024/01/26 09:03:47;;;;;;;7.85;6.20;;;;;;;;;;5084304;28;20020;-58
2024/01/26 09:06:14;;;;;;;6.75;5.43;;;;;;;;;;5083649;28;20031;-58
2024/01/26 09:08:41;;;;;;;6.78;6.07;;;;;;;;;;5084215;28;20027;-59
2024/01/26 09:11:09;;;;;;;6.70;5.90;;;;;;;;;;5083804;28;20025;-59
2024/01/26 09:13:35;;;;;;;6.63;5.53;;;;;;;;;;5083976;28;20024;-60
2024/01/26 09:16:02;;;;;;;6.75;6.05;;;;;;;;;;5083701;28;20034;-59
2024/01/26 09:18:28;;;;;;;6.15;5.47;;;;;;;;;;5084319;28;20025;-59
2024/01/26 09:20:55;;;;;;;6.63;5.35;;;;;;;;;;5083588;28;20083;-61
2024/01/26 09:23:21;;;;;;;6.30;5.60;;;;;;;;;;5084037;28;20031;-59
2024/01/26 09:25:48;;;;;;;7.43;5.63;;;;;;;;;;5083583;28;20025;-59
2024/01/26 09:28:14;;;;;;;7.28;5.25;;;;;;;;;;5083873;28;20086;-59
2024/01/26 09:30:41;;;;;;;8.30;5.90;;;;;;;;;;5083656;28;20255;-59
2024/01/26 09:33:08;;;;;;;7.57;5.70;;;;;;;;;;5083930;28;20024;-59
2024/01/26 09:35:34;;;;;;;8.63;6.18;;;;;;;;;;5083442;28;20028;-59
2024/01/26 09:38:01;;;;;;;10.93;6.22;;;;;;;;;;5083979;28;20028;-61
2024/01/26 09:40:28;;;;;;;11.68;6.35;;;;;;;;;;5083551;28;20067;-60
2024/01/26 09:42:54;;;;;;;8.25;5.60;;;;;;;;;;5083051;28;20048;-59
2024/01/26 09:45:22;;;;;;;11.55;6.43;;;;;;;;;;5083295;28;20025;-58
2024/01/26 09:47:53;;;;;;;11.18;6.22;;;;;;;;;;5083600;28;20209;-58
2024/01/26 09:50:23;;;;;;;11.82;5.50;;;;;;;;;;5083240;28;20016;-58
2024/01/26 09:52:51;;;;;;;11.95;6.50;;;;;;;;;;5083546;28;20020;-63
2024/01/26 09:55:17;;;;;;;7.80;5.60;;;;;;;;;;5083336;28;20025;-59
2024/01/26 09:57:45;;;;;;;8.90;5.88;;;;;;;;;;5083332;28;20028;-60
2024/01/26 10:00:12;;;;;;;8.05;5.38;;;;;;;;;;5083285;28;20220;-60
2024/01/26 10:02:38;;;;;;;8.82;5.45;;;;;;;;;;5083420;28;20119;-59
2024/01/26 10:05:06;;;;;;;7.22;5.28;;;;;;;;;;5083711;28;20028;-59
2024/01/26 10:07:33;;;;;;;11.07;6.25;;;;;;;;;;5087199;28;20031;-59
2024/01/26 10:09:59;;;;;;;10.73;6.18;;;;;;;;;;5086878;28;20024;-59
2024/01/26 10:12:26;;;;;;;8.75;5.50;;;;;;;;;;5086820;28;20297;-59
2024/01/26 10:15:05;;;;;;;9.90;6.00;;;;;;;;;;5086769;28;20035;-58
2024/01/26 10:17:32;;;;;;;10.25;6.15;;;;;;;;;;5086833;28;20024;-58
2024/01/26 10:20:14;;;;;;;10.20;6.22;;;;;;;;;;5086595;28;20035;-59
2024/01/26 10:22:45;;;;;;;8.98;6.22;;;;;;;;;;5086762;28;20020;-59
2024/01/26 10:25:13;;;;;;;7.80;5.80;;;;;;;;;;5086387;28;20032;-58
2024/01/26 10:27:39;;;;;;;10.75;6.22;;;;;;;;;;5086644;28;20016;-60
2024/01/26 10:30:07;;;;;;;11.02;6.07;;;;;;;;;;5086527;28;20024;-58
2024/01/26 10:32:34;;;;;;;11.65;6.10;;;;;;;;;;5086453;28;20044;-59
2024/01/26 10:35:04;;;;;;;8.23;6.00;;;;;;;;;;5086347;28;20031;-59
2024/01/26 10:37:35;;;;;;;10.68;6.43;;;;;;;;;;5086501;28;20054;-63
2024/01/26 10:40:04;;;;;;;8.93;6.70;;;;;;;;;;5086163;28;20024;-62
2024/01/26 10:42:31;;;;;;;12.32;6.47;;;;;;;;;;5086275;28;20032;-58
2024/01/26 10:45:01;;;;;;;10.30;6.20;;;;;;;;;;5086121;28;20028;-59
2024/01/26 10:47:28;;;;;;;10.60;6.75;;;;;;;;;;5086291;28;20020;-58
2024/01/26 10:49:57;;;;;;;10.90;6.82;;;;;;;;;;5086087;28;20204;-58
2024/01/26 10:52:23;;;;;;;9.02;6.60;;;;;;;;;;5086081;28;20020;-57
2024/01/26 10:54:51;;;;;;;10.90;6.50;;;;;;;;;;5086082;28;20028;-60
2024/01/26 10:57:19;;;;;;;11.23;6.57;;;;;;;;;;5086268;28;20092;-59
2024/01/26 10:59:46;;;;;;;14.82;6.97;;;;;;;;;;5086133;28;20099;-60
2024/01/26 11:02:17;;;;;;;15.18;7.00;;;;;;;;;;5086102;28;20308;-60
2024/01/26 11:04:44;;;;;;;11.55;6.88;;;;;;;;;;5085633;28;20032;-62
2024/01/26 11:07:11;;;;;;;16.50;6.65;;;;;;;;;;5085763;28;20061;-60
2024/01/26 11:09:42;;;;;;;12.60;6.78;;;;;;;;;;5085875;28;20031;-60
2024/01/26 11:12:29;;;;;;;11.95;6.93;;;;;;;;;;5085635;28;20059;-61
2024/01/26 11:15:09;;;;;;;16.00;7.47;;;;;;;;;;5085689;28;20024;-61
2024/01/26 11:17:45;;;;;;;25.45;7.82;;;;;;;;;;5085000;28;20036;-61
2024/01/26 11:20:18;;;;;;;17.77;7.35;;;;;;;;;;5085800;28;20308;-60
2024/01/26 11:22:45;;;;;;;20.85;8.18;;;;;;;;;;5085719;28;20186;-61
2024/01/26 11:25:24;;;;;;;19.95;7.95;;;;;;;;;;5085222;28;20032;-60
2024/01/26 11:28:00;;;;;;;14.15;7.28;;;;;;;;;;5085570;28;20040;-60
2024/01/26 11:30:27;;;;;;;15.38;6.90;;;;;;;;;;5085187;28;20016;-60
2024/01/26 11:32:54;;;;;;;14.75;7.30;;;;;;;;;;5085394;28;20012;-61
2024/01/26 11:35:20;;;;;;;16.55;7.78;;;;;;;;;;5085251;28;20044;-60
2024/01/26 11:37:48;;;;;;;17.35;7.13;;;;;;;;;;5085246;28;20034;-61
2024/01/26 11:40:15;;;;;;;20.88;8.32;;;;;;;;;;5086002;28;20078;-59
2024/01/26 11:42:42;;;;;;;25.55;8.20;;;;;;;;;;5084989;28;20048;-60
2024/01/26 11:45:12;;;;;;;17.70;8.70;;;;;;;;;;5084804;28;20020;-60
2024/01/26 11:47:39;;;;;;;20.73;11.23;;;;;;;;;;5085078;28;20213;-59
2024/01/26 11:50:07;;;;;;;18.15;9.10;;;;;;;;;;5084940;28;20020;-59
2024/01/26 11:52:34;;;;;;;18.80;9.45;;;;;;;;;;5084965;28;20012;-60
2024/01/26 11:55:01;;;;;;;21.58;8.77;;;;;;;;;;5084839;28;20033;-60
2024/01/26 11:57:28;;;;;;;18.02;8.80;;;;;;;;;;5084901;28;20031;-61
2024/01/26 11:59:55;;;;;;;18.65;8.50;;;;;;;;;;5084649;28;20320;-61
2024/01/26 12:02:21;;;;;;;18.58;8.88;;;;;;;;;;5084885;28;20021;-60
2024/01/26 12:04:48;;;;;;;23.02;10.02;;;;;;;;;;5084849;28;20028;-60
2024/01/26 12:07:15;;;;;;;19.10;9.35;;;;;;;;;;5084604;28;20020;-60
2024/01/26 12:09:42;;;;;;;24.50;9.90;;;;;;;;;;5084562;28;20271;-59
2024/01/26 12:12:10;;;;;;;100.53;16.90;;;;;;;;;;5084625;28;20304;-60
2024/01/26 12:14:37;;;;;;;32.63;10.82;;;;;;;;;;5084488;28;20325;-60
2024/01/26 12:17:04;;;;;;;35.35;10.30;;;;;;;;;;5084509;28;20027;-60
2024/01/26 12:19:30;;;;;;;33.63;10.93;;;;;;;;;;5084449;28;20048;-59
2024/01/26 12:21:57;;;;;;;31.25;10.45;;;;;;;;;;5084259;28;20118;-60
2024/01/26 12:24:24;;;;;;;29.40;10.45;;;;;;;;;;5084229;28;20048;-59
2024/01/26 12:26:51;;;;;;;36.22;10.75;;;;;;;;;;5084331;28;20016;-61
2024/01/26 12:29:18;;;;;;;30.73;10.02;;;;;;;;;;5083214;28;20024;-60
2024/01/26 12:31:44;;;;;;;24.40;10.35;;;;;;;;;;5084381;28;20017;-60
2024/01/26 12:34:15;;;;;;;29.65;10.68;;;;;;;;;;5084263;28;20078;-61
2024/01/26 12:36:42;;;;;;;29.20;11.07;;;;;;;;;;5084312;28;20258;-58
2024/01/26 12:39:08;;;;;;;28.50;10.88;;;;;;;;;;5084141;28;20087;-60
2024/01/26 12:41:35;;;;;;;31.25;10.73;;;;;;;;;;5084046;28;20021;-58
2024/01/26 12:44:02;;;;;;;23.30;9.68;;;;;;;;;;5083865;28;20323;-58
2024/01/26 12:46:28;;;;;;;23.45;10.02;;;;;;;;;;5084374;28;20047;-59
2024/01/26 12:48:55;;;;;;;25.17;9.57;;;;;;;;;;5084774;28;20312;-58
2024/01/26 12:51:21;;;;;;;18.58;9.52;;;;;;;;;;5083857;28;20025;-58
2024/01/26 12:53:48;;;;;;;47.28;10.65;;;;;;;;;;5084484;28;20084;-57
2024/01/26 12:56:15;;;;;;;22.20;9.40;;;;;;;;;;5084041;28;20324;-61
2024/01/26 12:58:41;;;;;;;22.58;9.23;;;;;;;;;;5083804;28;20320;-57
2024/01/26 13:01:08;;;;;;;24.88;8.55;;;;;;;;;;5083924;28;20051;-58
2024/01/26 13:03:34;;;;;;;22.27;9.50;;;;;;;;;;5084390;28;20024;-58
2024/01/26 13:06:01;;;;;;;16.05;8.45;;;;;;;;;;5083668;28;20021;-59
2024/01/26 13:08:28;;;;;;;16.73;8.07;;;;;;;;;;5084247;28;20098;-60
2024/01/26 13:10:54;;;;;;;17.33;8.10;;;;;;;;;;5084013;28;20087;-60
2024/01/26 13:13:21;;;;;;;17.15;7.95;;;;;;;;;;5095160;28;20263;-60
2024/01/26 13:15:48;;;;;;;21.10;8.10;;;;;;;;;;5083675;28;20348;-59
2024/01/26 13:18:14;;;;;;;14.13;7.38;;;;;;;;;;5084133;28;20177;-60
2024/01/26 13:20:41;;;;;;;15.45;7.60;;;;;;;;;;5083755;28;20026;-59
2024/01/26 13:23:08;;;;;;;13.90;7.63;;;;;;;;;;5083856;28;20044;-59
2024/01/26 13:25:34;;;;;;;13.93;7.40;;;;;;;;;;5083544;28;20025;-60
2024/01/26 13:28:01;;;;;;;14.05;7.35;;;;;;;;;;5083881;28;20024;-58
2024/01/26 13:30:27;;;;;;;10.85;6.70;;;;;;;;;;5083428;28;20047;-60
2024/01/26 13:32:54;;;;;;;10.13;6.72;;;;;;;;;;5083809;28;20205;-59
2024/01/26 13:35:22;;;;;;;11.23;7.03;;;;;;;;;;5083628;28;20029;-59
2024/01/26 13:37:49;;;;;;;12.20;6.82;;;;;;;;;;5083666;28;20020;-60
2024/01/26 13:40:16;;;;;;;12.00;6.95;;;;;;;;;;5084519;28;20040;-60
2024/01/26 13:42:42;;;;;;;13.15;6.65;;;;;;;;;;5087260;28;20206;-60
2024/01/26 13:45:11;;;;;;;11.25;6.68;;;;;;;;;;5098253;28;20028;-61
2024/01/26 13:47:39;;;;;;;12.90;6.38;;;;;;;;;;5087467;28;20024;-60
2024/01/26 13:50:07;;;;;;;10.10;6.53;;;;;;;;;;5087254;28;20025;-60
2024/01/26 13:52:33;;;;;;;10.80;6.40;;;;;;;;;;5087363;28;20083;-60
2024/01/26 13:55:00;;;;;;;9.85;5.93;;;;;;;;;;5087412;28;20032;-60
2024/01/26 13:57:28;;;;;;;11.57;6.32;;;;;;;;;;5087399;28;20237;-60
2024/01/26 13:59:57;;;;;;;10.13;6.20;;;;;;;;;;5086947;28;20024;-58
2024/01/26 14:02:25;;;;;;;8.32;6.05;;;;;;;;;;5087304;28;20024;-60
2024/01/26 14:04:51;;;;;;;11.00;6.93;;;;;;;;;;5089688;28;20056;-57
2024/01/26 14:07:18;;;;;;;10.77;6.00;;;;;;;;;;5096030;28;20027;-59
2024/01/26 14:09:45;;;;;;;7.68;5.75;;;;;;;;;;5086887;28;20040;-59
2024/01/26 14:12:11;;;;;;;8.43;6.20;;;;;;;;;;5086991;28;20021;-57
2024/01/26 14:14:38;;;;;;;9.18;6.45;;;;;;;;;;5088084;28;20027;-59
2024/01/26 14:17:06;;;;;;;9.18;6.65;;;;;;;;;;5086756;28;20031;-58
2024/01/26 14:19:33;;;;;;;10.05;6.10;;;;;;;;;;5086955;28;20032;-59
2024/01/26 14:21:59;;;;;;;8.85;5.95;;;;;;;;;;5086758;28;20036;-59
2024/01/26 14:24:26;;;;;;;8.23;5.90;;;;;;;;;;5086654;28;20276;-59
2024/01/26 14:26:53;;;;;;;8.27;5.88;;;;;;;;;;5086537;28;20017;-59
2024/01/26 14:29:20;;;;;;;10.23;6.20;;;;;;;;;;5086468;28;20031;-58
2024/01/26 14:31:49;;;;;;;8.48;5.93;;;;;;;;;;5086490;28;20016;-59